Time;durP1;ratioP1;P1;durP2;ratioP2;P2;SDS_P1;SDS_P2;PMS_P1;PMS_P2;Temp;Humidity;BMP_temperature;BMP_pressure;BME280_temperature;BME280_humidity;BME280_pressure;Samples;Min_cycle;Max_cycle;Signal;HPM_P1;HPM_P2
2024/01/29 00:00:51;;;;;;;22.65;13.30;;;-0.50;85.40;;;;;;5045674;28;20043;-61
2024/01/29 00:03:17;;;;;;;26.33;14.23;;;-0.60;85.30;;;;;;5046248;28;20048;-61
2024/01/29 00:05:42;;;;;;;26.40;15.30;;;-0.60;85.40;;;;;;5044785;28;20041;-61
2024/01/29 00:08:08;;;;;;;27.67;14.98;;;-0.60;85.40;;;;;;5042199;28;20030;-61
2024/01/29 00:10:33;;;;;;;26.52;15.07;;;-0.50;85.60;;;;;;5042685;28;20033;-60
2024/01/29 00:12:59;;;;;;;25.25;14.98;;;-0.50;85.70;;;;;;5046651;28;20486;-61
2024/01/29 00:15:24;;;;;;;25.30;14.20;;;-0.60;85.60;;;;;;5050084;28;20106;-61
2024/01/29 00:17:50;;;;;;;23.15;14.02;;;-0.50;85.50;;;;;;5050535;28;20467;-61
2024/01/29 00:20:15;;;;;;;24.10;14.27;;;-0.50;85.40;;;;;;5049201;28;20400;-59
2024/01/29 00:22:41;;;;;;;22.08;13.55;;;-0.50;85.40;;;;;;5045153;28;20124;-61
2024/01/29 00:25:07;;;;;;;22.38;14.02;;;-0.50;85.40;;;;;;5045367;28;20029;-60
2024/01/29 00:27:33;;;;;;;22.88;13.85;;;-0.60;85.20;;;;;;5049803;28;20091;-59
2024/01/29 00:30:01;;;;;;;21.23;13.07;;;-0.60;85.20;;;;;;5045014;28;20444;-61
2024/01/29 00:32:27;;;;;;;20.92;12.80;;;-0.60;85.30;;;;;;5046532;28;20037;-60
2024/01/29 00:34:53;;;;;;;20.08;12.60;;;-0.60;85.40;;;;;;5050215;28;20067;-60
2024/01/29 00:37:26;;;;;;;22.63;13.27;;;-0.60;85.60;;;;;;5045159;28;20036;-62
2024/01/29 00:39:52;;;;;;;19.17;12.07;;;-0.60;85.40;;;;;;5051305;28;20096;-59
2024/01/29 00:42:18;;;;;;;18.10;12.60;;;-0.60;85.40;;;;;;5039392;28;20116;-61
2024/01/29 00:44:44;;;;;;;19.55;12.52;;;-0.60;85.40;;;;;;5048894;28;20033;-61
2024/01/29 00:47:10;;;;;;;21.85;13.02;;;-0.60;85.60;;;;;;5044823;28;20024;-61
2024/01/29 00:49:36;;;;;;;20.02;12.55;;;-0.60;85.60;;;;;;5039087;28;20120;-59
2024/01/29 00:52:04;;;;;;;20.80;12.90;;;-0.70;85.50;;;;;;5049469;28;20041;-59
2024/01/29 00:54:30;;;;;;;20.40;12.57;;;-0.70;85.60;;;;;;5045809;28;20037;-59
2024/01/29 00:56:55;;;;;;;22.20;13.30;;;-0.70;85.70;;;;;;5046271;28;20455;-61
2024/01/29 00:59:21;;;;;;;20.88;12.65;;;-0.70;85.80;;;;;;5048078;28;20037;-59
2024/01/29 01:01:47;;;;;;;21.27;12.18;;;-0.70;85.90;;;;;;5047668;28;20029;-62
2024/01/29 01:04:12;;;;;;;22.83;13.40;;;-0.70;85.80;;;;;;5044112;28;20033;-61
2024/01/29 01:06:38;;;;;;;22.02;12.88;;;-0.60;85.90;;;;;;5049848;28;20040;-61
2024/01/29 01:09:04;;;;;;;19.90;12.98;;;-0.50;85.90;;;;;;5046946;28;20017;-61
2024/01/29 01:11:29;;;;;;;22.23;13.63;;;-0.70;85.60;;;;;;5045669;28;20075;-60
2024/01/29 01:13:55;;;;;;;25.52;14.10;;;-0.60;85.60;;;;;;5046750;28;20090;-60
2024/01/29 01:16:20;;;;;;;22.10;13.40;;;-0.60;85.50;;;;;;5045434;28;20041;-59
2024/01/29 01:18:46;;;;;;;20.92;13.07;;;-0.70;85.50;;;;;;5048490;28;20040;-60
2024/01/29 01:21:12;;;;;;;21.50;13.25;;;-0.70;85.60;;;;;;5044603;28;20147;-60
2024/01/29 01:23:38;;;;;;;21.50;13.32;;;-0.70;85.60;;;;;;5044784;28;20571;-60
2024/01/29 01:26:05;;;;;;;24.02;13.38;;;-0.70;85.60;;;;;;5046261;28;20033;-62
2024/01/29 01:28:30;;;;;;;21.05;12.77;;;-0.70;85.80;;;;;;5049930;28;20029;-59
2024/01/29 01:30:56;;;;;;;21.35;12.95;;;-0.70;85.80;;;;;;5048340;28;20105;-61
2024/01/29 01:33:21;;;;;;;20.50;12.30;;;-0.70;85.80;;;;;;5046178;28;20040;-61
2024/01/29 01:35:47;;;;;;;22.50;13.05;;;-0.70;85.80;;;;;;5044671;28;20408;-60
2024/01/29 01:38:13;;;;;;;23.10;13.55;;;-0.60;85.90;;;;;;5041526;28;20036;-63
2024/01/29 01:40:38;;;;;;;21.30;12.95;;;-0.60;85.60;;;;;;5048275;28;20033;-61
2024/01/29 01:43:21;;;;;;;20.95;12.52;;;-0.60;85.60;;;;;;5050508;28;20036;-61
2024/01/29 01:46:16;;;;;;;19.50;12.15;;;-0.60;85.40;;;;;;5042883;28;20048;-60
2024/01/29 01:48:41;;;;;;;22.60;13.40;;;-0.60;85.50;;;;;;5061697;28;20040;-60
2024/01/29 01:51:08;;;;;;;20.77;12.32;;;-0.60;85.50;;;;;;5040829;28;20029;-62
2024/01/29 01:53:37;;;;;;;22.67;12.98;;;-0.60;85.40;;;;;;5040199;28;20122;-61
2024/01/29 01:56:05;;;;;;;21.02;13.30;;;-0.60;85.30;;;;;;5043078;28;20048;-61
2024/01/29 01:58:32;;;;;;;19.70;12.80;;;-0.60;85.30;;;;;;5046074;28;20064;-60
2024/01/29 02:00:58;;;;;;;20.40;12.50;;;-0.60;85.30;;;;;;5050667;28;20037;-61
2024/01/29 02:03:25;;;;;;;20.02;12.40;;;-0.60;85.30;;;;;;5043821;28;20087;-59
2024/01/29 02:05:51;;;;;;;20.58;11.88;;;-0.70;85.10;;;;;;5044488;28;20408;-61
2024/01/29 02:08:17;;;;;;;22.13;12.88;;;-0.70;85.20;;;;;;5044206;28;20038;-60
2024/01/29 02:10:44;;;;;;;21.67;12.73;;;-0.70;85.10;;;;;;5045306;28;20029;-60
2024/01/29 02:13:13;;;;;;;17.17;10.95;;;-0.70;85.30;;;;;;5045872;28;20124;-61
2024/01/29 02:15:39;;;;;;;19.13;11.65;;;-0.70;85.50;;;;;;5049513;28;20039;-61
2024/01/29 02:18:05;;;;;;;19.42;11.80;;;-0.70;85.70;;;;;;5047115;28;20033;-60
2024/01/29 02:20:34;;;;;;;19.92;12.45;;;-0.70;85.60;;;;;;5046865;28;20064;-59
2024/01/29 02:23:00;;;;;;;20.85;12.98;;;-0.70;85.60;;;;;;5043061;28;20128;-60
2024/01/29 02:25:26;;;;;;;18.80;11.40;;;-0.70;85.60;;;;;;5043548;28;20548;-61
2024/01/29 02:27:51;;;;;;;19.33;11.60;;;-0.70;85.60;;;;;;5049545;28;20036;-60
2024/01/29 02:30:17;;;;;;;20.63;11.63;;;-0.70;85.80;;;;;;5041915;28;20033;-61
2024/01/29 02:32:42;;;;;;;18.27;12.00;;;-0.70;85.90;;;;;;5043288;28;20112;-61
2024/01/29 02:35:08;;;;;;;21.67;12.82;;;-0.70;85.90;;;;;;5051222;28;20306;-61
2024/01/29 02:37:34;;;;;;;18.35;11.20;;;-0.70;85.90;;;;;;5041654;28;20025;-60
2024/01/29 02:40:00;;;;;;;20.10;11.93;;;-0.70;85.80;;;;;;5046313;28;20029;-61
2024/01/29 02:42:26;;;;;;;19.25;11.80;;;-0.70;85.70;;;;;;5043901;28;20037;-61
2024/01/29 02:44:51;;;;;;;19.90;12.43;;;-0.70;86.50;;;;;;5044252;28;20083;-59
2024/01/29 02:47:17;;;;;;;20.33;12.20;;;-0.60;85.60;;;;;;5045773;28;20052;-59
2024/01/29 02:49:43;;;;;;;19.02;11.90;;;-0.70;85.50;;;;;;5042721;28;20040;-62
2024/01/29 02:52:09;;;;;;;21.92;12.93;;;-0.70;86.30;;;;;;5046321;28;20538;-61
2024/01/29 02:54:35;;;;;;;19.90;12.23;;;-0.70;85.40;;;;;;5042944;28;20063;-60
2024/01/29 02:57:01;;;;;;;19.13;11.82;;;-0.70;85.60;;;;;;5049268;28;20052;-60
2024/01/29 02:59:26;;;;;;;16.50;10.98;;;-0.70;85.70;;;;;;5040525;28;20098;-61
2024/01/29 03:01:55;;;;;;;18.67;11.70;;;-0.80;85.80;;;;;;5046148;28;20040;-61
2024/01/29 03:04:20;;;;;;;17.88;11.20;;;-0.70;86.00;;;;;;5040033;28;20041;-62
2024/01/29 03:06:46;;;;;;;18.38;11.48;;;-0.70;86.00;;;;;;5044410;28;20162;-61
2024/01/29 03:09:11;;;;;;;20.60;12.13;;;-0.70;86.10;;;;;;5046046;28;20040;-59
2024/01/29 03:11:37;;;;;;;18.58;11.60;;;-0.80;86.00;;;;;;5047556;28;20215;-59
2024/01/29 03:14:03;;;;;;;19.58;11.63;;;-0.70;86.00;;;;;;5042943;28;20755;-62
2024/01/29 03:16:28;;;;;;;19.23;12.23;;;-0.70;86.10;;;;;;5047329;28;20025;-62
2024/01/29 03:18:54;;;;;;;20.05;12.07;;;-0.80;86.00;;;;;;5046229;28;20047;-61
2024/01/29 03:21:19;;;;;;;21.42;12.73;;;-0.70;86.00;;;;;;5042617;28;20378;-59
2024/01/29 03:23:45;;;;;;;18.48;12.02;;;-0.70;86.00;;;;;;5046297;28;20052;-60
2024/01/29 03:26:10;;;;;;;21.10;12.73;;;-0.70;86.00;;;;;;5045669;28;20029;-61
2024/01/29 03:28:36;;;;;;;21.35;12.05;;;-0.70;86.00;;;;;;5049753;28;20112;-61
2024/01/29 03:31:02;;;;;;;21.83;12.68;;;-0.70;86.00;;;;;;5047824;28;20028;-60
2024/01/29 03:33:27;;;;;;;22.55;14.40;;;-0.70;86.00;;;;;;5041872;28;20103;-61
2024/01/29 03:35:53;;;;;;;21.70;13.73;;;-0.70;86.10;;;;;;5042646;28;20401;-61
2024/01/29 03:38:18;;;;;;;18.80;11.43;;;-0.70;85.90;;;;;;5041206;28;20034;-61
2024/01/29 03:40:45;;;;;;;22.33;13.35;;;-0.70;85.80;;;;;;5045071;28;20037;-60
2024/01/29 03:43:10;;;;;;;21.80;13.35;;;-0.70;86.00;;;;;;5043930;28;20045;-61
2024/01/29 03:45:36;;;;;;;21.08;13.23;;;-0.70;86.00;;;;;;5044024;28;20163;-61
2024/01/29 03:48:02;;;;;;;21.08;13.32;;;-0.70;85.90;;;;;;5043343;28;20060;-59
2024/01/29 03:50:28;;;;;;;23.50;14.13;;;-0.60;86.00;;;;;;5044679;28;20061;-61
2024/01/29 03:52:53;;;;;;;23.50;14.63;;;-0.60;85.90;;;;;;5046457;28;20328;-59
2024/01/29 03:55:19;;;;;;;23.83;14.77;;;-0.60;85.90;;;;;;5049264;28;20396;-62
2024/01/29 03:57:45;;;;;;;24.77;14.80;;;-0.60;85.80;;;;;;5048616;28;20044;-60
2024/01/29 04:00:11;;;;;;;27.92;14.73;;;-0.60;85.60;;;;;;5053020;28;20033;-61
2024/01/29 04:02:36;;;;;;;23.75;13.98;;;-0.70;85.50;;;;;;5042267;28;20523;-62
2024/01/29 04:05:02;;;;;;;21.27;12.68;;;-0.70;85.40;;;;;;5044287;28;20056;-61
2024/01/29 04:07:28;;;;;;;17.98;12.20;;;-0.70;85.30;;;;;;5051420;28;20582;-62
2024/01/29 04:09:53;;;;;;;20.52;12.30;;;-0.70;85.10;;;;;;5053833;28;20041;-60
2024/01/29 04:12:19;;;;;;;19.42;12.05;;;-0.70;85.20;;;;;;5045606;28;20505;-61
2024/01/29 04:14:45;;;;;;;21.38;13.45;;;-0.70;85.40;;;;;;5046172;28;20048;-60
2024/01/29 04:17:12;;;;;;;31.45;13.23;;;-0.80;85.20;;;;;;5046018;28;20029;-61
2024/01/29 04:19:38;;;;;;;21.70;13.13;;;-0.80;84.90;;;;;;5047762;28;20104;-61
2024/01/29 04:22:04;;;;;;;19.95;13.15;;;-0.80;84.90;;;;;;5046630;28;20040;-60
2024/01/29 04:24:30;;;;;;;20.83;12.52;;;-0.80;85.10;;;;;;5048783;28;20025;-61
2024/01/29 04:26:56;;;;;;;22.35;13.50;;;-0.90;85.10;;;;;;5050788;28;20039;-61
2024/01/29 04:29:22;;;;;;;21.38;13.50;;;-0.90;85.30;;;;;;5047765;28;20025;-61
2024/01/29 04:31:47;;;;;;;26.70;14.75;;;-0.90;86.20;;;;;;5050336;28;20033;-59
2024/01/29 04:34:13;;;;;;;24.48;13.82;;;-0.90;85.50;;;;;;5046454;28;20087;-60
2024/01/29 04:36:38;;;;;;;23.13;14.38;;;-0.90;85.60;;;;;;5045188;28;20082;-61
2024/01/29 04:39:04;;;;;;;24.95;14.68;;;-0.90;85.50;;;;;;5047665;28;20499;-59
2024/01/29 04:41:30;;;;;;;23.80;14.43;;;-0.90;85.40;;;;;;5045617;28;20056;-63
2024/01/29 04:43:56;;;;;;;23.63;13.20;;;-0.90;85.30;;;;;;5047225;28;20036;-62
2024/01/29 04:46:23;;;;;;;22.13;13.38;;;-1.00;85.20;;;;;;5039669;28;20030;-63
2024/01/29 04:48:48;;;;;;;22.88;12.45;;;-1.00;85.30;;;;;;5043976;28;20037;-64
2024/01/29 04:51:14;;;;;;;19.88;11.45;;;-1.00;85.40;;;;;;5048532;28;20033;-62
2024/01/29 04:53:40;;;;;;;22.50;13.30;;;-1.00;85.40;;;;;;5048101;28;20063;-62
2024/01/29 04:56:06;;;;;;;21.52;12.93;;;-1.00;85.40;;;;;;5047918;28;20126;-62
2024/01/29 04:58:32;;;;;;;21.20;13.32;;;-1.00;85.30;;;;;;5042454;28;20037;-62
2024/01/29 05:01:01;;;;;;;20.40;13.43;;;-0.90;85.40;;;;;;5048466;28;20032;-61
2024/01/29 05:03:27;;;;;;;20.77;12.52;;;-1.00;85.30;;;;;;5045550;28;20032;-60
2024/01/29 05:05:52;;;;;;;20.48;13.07;;;-1.00;85.40;;;;;;5044338;28;20040;-62
2024/01/29 05:08:21;;;;;;;23.42;14.60;;;-0.90;85.40;;;;;;5046784;28;20132;-63
2024/01/29 05:10:47;;;;;;;21.90;13.90;;;-0.90;85.40;;;;;;5041857;28;20037;-62
2024/01/29 05:13:12;;;;;;;20.25;12.77;;;-0.90;85.30;;;;;;5041889;28;20029;-62
2024/01/29 05:15:38;;;;;;;24.48;13.82;;;-0.90;85.10;;;;;;5047252;28;20064;-62
2024/01/29 05:18:04;;;;;;;21.40;13.38;;;-0.90;85.10;;;;;;5042987;28;20049;-61
2024/01/29 05:20:30;;;;;;;22.70;13.82;;;-0.90;85.10;;;;;;5044628;28;20040;-62
2024/01/29 05:22:56;;;;;;;22.58;13.60;;;-0.90;85.10;;;;;;5046489;28;20045;-63
2024/01/29 05:25:22;;;;;;;23.27;13.48;;;-0.90;85.10;;;;;;5042503;28;20029;-63
2024/01/29 05:27:47;;;;;;;22.80;13.35;;;-0.90;85.80;;;;;;5046486;28;20464;-63
2024/01/29 05:30:14;;;;;;;22.50;14.27;;;-0.90;85.10;;;;;;5038894;28;20033;-61
2024/01/29 05:32:39;;;;;;;19.88;12.48;;;-0.90;85.10;;;;;;5042982;28;20040;-63
2024/01/29 05:35:05;;;;;;;21.52;13.07;;;-0.90;85.10;;;;;;5044888;28;20033;-63
2024/01/29 05:37:32;;;;;;;22.67;12.73;;;-0.90;85.10;;;;;;5044969;28;20053;-63
2024/01/29 05:39:58;;;;;;;23.55;13.45;;;-0.90;85.10;;;;;;5049712;28;20025;-63
2024/01/29 05:42:23;;;;;;;19.88;12.90;;;-0.90;85.00;;;;;;5046604;28;20079;-63
2024/01/29 05:44:50;;;;;;;24.40;14.63;;;-0.90;84.90;;;;;;5047554;28;20029;-61
2024/01/29 05:47:16;;;;;;;25.33;13.50;;;-0.90;85.10;;;;;;5048085;28;20092;-62
2024/01/29 05:49:41;;;;;;;22.98;14.00;;;-0.90;85.00;;;;;;5044972;28;20075;-63
2024/01/29 05:52:07;;;;;;;24.13;14.32;;;-1.00;84.90;;;;;;5041588;28;20041;-64
2024/01/29 05:54:33;;;;;;;25.23;14.30;;;-1.00;84.90;;;;;;5041815;28;21276;-63
2024/01/29 05:57:00;;;;;;;21.48;14.18;;;-1.00;84.70;;;;;;5044201;28;20049;-60
2024/01/29 05:59:25;;;;;;;23.92;14.77;;;-1.00;84.90;;;;;;5049461;28;20033;-62
2024/01/29 06:01:51;;;;;;;24.30;14.85;;;-1.10;84.90;;;;;;5045446;28;20037;-62
2024/01/29 06:04:17;;;;;;;25.65;15.20;;;-1.10;84.90;;;;;;5041747;28;20473;-62
2024/01/29 06:06:43;;;;;;;33.70;15.60;;;-1.10;84.90;;;;;;5046306;28;20033;-62
2024/01/29 06:09:10;;;;;;;24.58;14.70;;;-1.10;84.80;;;;;;5045842;28;20040;-62
2024/01/29 06:11:36;;;;;;;30.00;16.17;;;-1.20;84.70;;;;;;5049066;28;20052;-63
2024/01/29 06:14:02;;;;;;;29.48;17.58;;;-1.20;84.70;;;;;;5045145;28;20099;-61
2024/01/29 06:16:28;;;;;;;31.42;17.85;;;-1.20;84.90;;;;;;5050314;28;20033;-62
2024/01/29 06:18:57;;;;;;;28.73;17.17;;;-1.20;85.00;;;;;;5046028;28;20036;-62
2024/01/29 06:21:23;;;;;;;29.98;16.13;;;-1.30;85.20;;;;;;5046861;28;20033;-63
2024/01/29 06:23:49;;;;;;;26.70;16.33;;;-1.30;85.40;;;;;;5049308;28;20048;-61
2024/01/29 06:26:14;;;;;;;24.67;14.43;;;-1.40;85.50;;;;;;5043425;28;20063;-63
2024/01/29 06:28:43;;;;;;;28.23;14.43;;;-1.30;85.80;;;;;;5046082;28;20048;-59
2024/01/29 06:31:09;;;;;;;29.50;15.15;;;-1.30;85.90;;;;;;5044847;28;20557;-60
2024/01/29 06:33:39;;;;;;;33.28;18.48;;;-1.30;86.00;;;;;;5038421;28;20048;-61
2024/01/29 06:36:06;;;;;;;29.40;17.08;;;-1.30;86.10;;;;;;5044665;28;20059;-62
2024/01/29 06:38:31;;;;;;;29.30;17.25;;;-1.30;86.00;;;;;;5043965;28;20404;-62
2024/01/29 06:40:58;;;;;;;30.33;16.25;;;-1.30;86.00;;;;;;5048192;28;20057;-62
2024/01/29 06:43:23;;;;;;;26.35;15.13;;;-1.30;85.80;;;;;;5048677;28;20393;-63
2024/01/29 06:45:49;;;;;;;29.17;15.15;;;-1.20;85.90;;;;;;5043879;28;20041;-61
2024/01/29 06:48:14;;;;;;;26.10;14.57;;;-1.30;85.80;;;;;;5047112;28;20083;-63
2024/01/29 06:50:40;;;;;;;28.23;16.48;;;-1.20;85.80;;;;;;5046501;28;20044;-61
2024/01/29 06:53:06;;;;;;;30.73;16.63;;;-1.30;85.70;;;;;;5042859;28;20040;-61
2024/01/29 06:55:32;;;;;;;34.90;17.88;;;-1.20;85.80;;;;;;5046044;28;20440;-62
2024/01/29 06:57:57;;;;;;;30.30;17.33;;;-1.30;85.80;;;;;;5043503;28;20033;-62
2024/01/29 07:00:23;;;;;;;33.88;19.13;;;-1.30;85.80;;;;;;5046777;28;20040;-62
2024/01/29 07:02:48;;;;;;;41.05;19.55;;;-1.30;85.80;;;;;;5046768;28;20041;-63
2024/01/29 07:05:16;;;;;;;34.55;19.15;;;-1.20;86.00;;;;;;5043395;28;20052;-60
2024/01/29 07:07:41;;;;;;;30.92;17.80;;;-1.20;86.00;;;;;;5048546;28;20129;-63
2024/01/29 07:10:07;;;;;;;29.13;16.42;;;-1.20;85.90;;;;;;5043892;28;20477;-61
2024/01/29 07:12:32;;;;;;;33.70;16.98;;;-1.20;86.00;;;;;;5043486;28;20075;-62
2024/01/29 07:14:58;;;;;;;26.77;15.60;;;-1.20;86.00;;;;;;5042161;28;20045;-62
2024/01/29 07:17:24;;;;;;;24.52;14.55;;;-1.20;86.00;;;;;;5043883;28;20138;-61
2024/01/29 07:19:52;;;;;;;28.25;15.65;;;-1.20;86.00;;;;;;5046709;28;20123;-63
2024/01/29 07:22:21;;;;;;;27.95;16.13;;;-1.20;86.10;;;;;;5041193;28;20440;-61
2024/01/29 07:24:48;;;;;;;31.50;16.92;;;-1.20;86.30;;;;;;5050729;28;20047;-62
2024/01/29 07:27:15;;;;;;;27.58;15.05;;;-1.20;86.30;;;;;;5048515;28;20467;-63
2024/01/29 07:29:41;;;;;;;27.20;15.48;;;-1.10;86.50;;;;;;5048687;28;20445;-62
2024/01/29 07:32:07;;;;;;;29.30;16.17;;;-1.10;86.50;;;;;;5050053;28;20028;-62
2024/01/29 07:34:32;;;;;;;35.35;19.35;;;-1.10;86.60;;;;;;5050812;28;20505;-62
2024/01/29 07:36:59;;;;;;;43.22;22.73;;;-1.10;86.70;;;;;;5050135;28;20490;-62
2024/01/29 07:39:24;;;;;;;46.55;22.63;;;-1.00;86.70;;;;;;5050263;28;20029;-61
2024/01/29 07:41:50;;;;;;;37.47;20.83;;;-1.00;86.70;;;;;;5045080;28;20035;-62
2024/01/29 07:44:16;;;;;;;40.45;21.67;;;-1.00;86.70;;;;;;5044385;28;20124;-60
2024/01/29 07:46:42;;;;;;;35.10;19.08;;;-1.00;86.80;;;;;;5048470;28;20033;-62
2024/01/29 07:49:07;;;;;;;44.30;22.08;;;-1.00;86.90;;;;;;5047341;28;20095;-61
2024/01/29 07:51:34;;;;;;;45.17;23.55;;;-0.90;87.20;;;;;;5048412;28;20041;-62
2024/01/29 07:53:59;;;;;;;60.97;29.67;;;-0.90;87.20;;;;;;5043307;28;20454;-62
2024/01/29 07:56:25;;;;;;;76.30;34.85;;;-0.90;87.30;;;;;;5051124;28;20082;-62
2024/01/29 07:58:51;;;;;;;75.57;35.10;;;-0.80;87.40;;;;;;5046795;28;20044;-61
2024/01/29 08:01:17;;;;;;;66.30;32.35;;;-0.80;87.50;;;;;;5043330;28;20025;-62
2024/01/29 08:03:43;;;;;;;72.72;34.13;;;-0.80;87.70;;;;;;5046414;28;20044;-59
2024/01/29 08:06:08;;;;;;;74.35;35.80;;;-0.70;87.90;;;;;;5043290;28;20040;-62
2024/01/29 08:08:36;;;;;;;84.80;38.58;;;-0.70;87.90;;;;;;5051331;28;20450;-61
2024/01/29 08:11:02;;;;;;;72.70;35.42;;;-0.70;88.00;;;;;;5046438;28;20033;-62
2024/01/29 08:13:28;;;;;;;78.18;36.72;;;-0.60;88.20;;;;;;5042678;28;20400;-61
2024/01/29 08:15:54;;;;;;;72.32;34.53;;;-0.60;88.40;;;;;;5049476;28;20033;-63
2024/01/29 08:18:20;;;;;;;75.28;37.30;;;-0.50;88.70;;;;;;5044108;28;20030;-60
2024/01/29 08:20:45;;;;;;;75.53;37.38;;;-0.40;88.90;;;;;;5050617;28;20040;-60
2024/01/29 08:23:11;;;;;;;71.07;35.17;;;-0.40;89.10;;;;;;5047610;28;20052;-62
2024/01/29 08:25:38;;;;;;;65.60;32.88;;;-0.40;89.10;;;;;;5046455;28;20037;-63
2024/01/29 08:28:04;;;;;;;61.22;30.20;;;-0.30;89.20;;;;;;5050265;28;20179;-62
2024/01/29 08:30:29;;;;;;;54.78;28.67;;;-0.20;89.30;;;;;;5047050;28;20025;-61
2024/01/29 08:32:55;;;;;;;53.17;27.73;;;-0.20;89.40;;;;;;5049398;28;20033;-60
2024/01/29 08:35:20;;;;;;;47.00;24.80;;;-0.10;89.60;;;;;;5046150;28;20034;-62
2024/01/29 08:37:46;;;;;;;42.63;23.50;;;-0.10;89.50;;;;;;5046544;28;20420;-62
2024/01/29 08:40:12;;;;;;;40.10;22.40;;;0.00;89.60;;;;;;5047574;28;20037;-62
2024/01/29 08:42:37;;;;;;;32.50;18.88;;;0.10;89.80;;;;;;5045040;28;20056;-62
2024/01/29 08:45:04;;;;;;;30.13;17.98;;;0.10;90.00;;;;;;5047702;28;20041;-62
2024/01/29 08:47:30;;;;;;;28.63;17.40;;;0.20;90.10;;;;;;5049780;28;20056;-62
2024/01/29 08:49:56;;;;;;;26.15;16.42;;;0.30;90.10;;;;;;5044656;28;20140;-62
2024/01/29 08:52:22;;;;;;;26.25;15.95;;;0.40;90.30;;;;;;5048592;28;20033;-62
2024/01/29 08:54:48;;;;;;;23.42;15.43;;;0.40;90.30;;;;;;5044888;28;20040;-61
2024/01/29 08:57:13;;;;;;;22.08;14.48;;;0.50;90.50;;;;;;5046765;28;20451;-61
2024/01/29 08:59:39;;;;;;;22.63;14.50;;;0.60;90.70;;;;;;5051544;28;20037;-62
2024/01/29 09:02:05;;;;;;;23.20;15.18;;;0.70;90.80;;;;;;5043244;28;20051;-62
2024/01/29 09:04:31;;;;;;;21.40;14.43;;;0.80;90.90;;;;;;5047726;28;20391;-60
2024/01/29 09:06:56;;;;;;;22.95;14.63;;;0.90;91.00;;;;;;5046736;28;20040;-59
2024/01/29 09:09:22;;;;;;;23.15;14.75;;;1.00;91.00;;;;;;5050679;28;20045;-61
2024/01/29 09:11:47;;;;;;;21.77;14.70;;;1.00;91.10;;;;;;5043631;28;20120;-61
2024/01/29 09:14:13;;;;;;;21.17;14.63;;;1.10;91.10;;;;;;5042891;28;20496;-61
2024/01/29 09:16:39;;;;;;;21.08;14.95;;;1.20;91.10;;;;;;5046780;28;20033;-61
2024/01/29 09:19:05;;;;;;;21.35;14.35;;;1.40;91.10;;;;;;5043906;28;20546;-60
2024/01/29 09:21:36;;;;;;;22.98;14.88;;;1.40;91.00;;;;;;5046866;28;20037;-61
2024/01/29 09:24:02;;;;;;;22.25;14.68;;;1.50;91.00;;;;;;5047060;28;20103;-62
2024/01/29 09:26:28;;;;;;;24.30;14.70;;;1.60;91.00;;;;;;5046158;28;20464;-62
2024/01/29 09:28:53;;;;;;;26.75;16.55;;;1.70;91.10;;;;;;5041703;28;20033;-59
2024/01/29 09:31:19;;;;;;;23.35;15.77;;;1.80;91.10;;;;;;5046533;28;20025;-61
2024/01/29 09:33:45;;;;;;;24.42;16.25;;;1.90;91.50;;;;;;5041418;28;20049;-62
2024/01/29 09:36:10;;;;;;;25.45;16.95;;;1.90;91.10;;;;;;5048208;28;20412;-60
2024/01/29 09:38:36;;;;;;;24.60;16.15;;;2.00;91.10;;;;;;5047733;28;20029;-62
2024/01/29 09:41:03;;;;;;;23.50;15.02;;;2.10;91.10;;;;;;5043930;28;20037;-61
2024/01/29 09:43:29;;;;;;;22.02;15.35;;;2.20;91.00;;;;;;5042155;28;20036;-61
2024/01/29 09:45:56;;;;;;;26.98;14.90;;;2.30;91.00;;;;;;5042955;28;20041;-61
2024/01/29 09:48:22;;;;;;;31.13;16.88;;;2.30;90.90;;;;;;5045657;28;20037;-60
2024/01/29 09:50:49;;;;;;;26.70;16.48;;;2.40;90.90;;;;;;5048353;28;20044;-60
2024/01/29 09:53:19;;;;;;;25.60;16.35;;;2.50;90.90;;;;;;5045118;28;20116;-61
2024/01/29 09:55:45;;;;;;;23.92;15.98;;;2.60;90.90;;;;;;5047899;28;20578;-62
2024/01/29 09:58:11;;;;;;;27.23;17.40;;;2.70;90.80;;;;;;5039984;28;20037;-61
2024/01/29 10:00:36;;;;;;;24.70;16.42;;;2.80;90.80;;;;;;5042335;28;20033;-60
2024/01/29 10:03:05;;;;;;;25.73;15.48;;;2.90;90.80;;;;;;5043181;28;20622;-60
2024/01/29 10:05:31;;;;;;;22.77;15.88;;;2.90;90.90;;;;;;5042440;28;20458;-61
2024/01/29 10:07:58;;;;;;;24.13;15.68;;;3.00;90.90;;;;;;5048770;28;20413;-62
2024/01/29 10:10:27;;;;;;;23.73;14.60;;;3.10;90.90;;;;;;5043615;28;20029;-61
2024/01/29 10:13:06;;;;;;;25.48;15.93;;;3.20;90.90;;;;;;5049032;28;20417;-60
2024/01/29 10:15:33;;;;;;;24.33;17.15;;;3.30;91.10;;;;;;5049393;28;20470;-61
2024/01/29 10:17:58;;;;;;;24.40;16.42;;;3.40;91.00;;;;;;5044805;28;20048;-61
2024/01/29 10:20:24;;;;;;;25.88;17.38;;;3.40;91.10;;;;;;5041100;28;20037;-62
2024/01/29 10:23:01;;;;;;;24.42;16.25;;;3.60;91.20;;;;;;5045748;28;20033;-62
2024/01/29 10:25:34;;;;;;;25.10;16.35;;;3.70;91.20;;;;;;5044209;28;20033;-63
2024/01/29 10:28:12;;;;;;;28.35;17.55;;;3.80;91.10;;;;;;5043630;28;20025;-62
2024/01/29 10:30:39;;;;;;;22.48;15.77;;;3.90;91.10;;;;;;5043454;28;20055;-62
2024/01/29 10:33:06;;;;;;;22.77;16.55;;;4.00;91.10;;;;;;5040335;28;20036;-62
2024/01/29 10:35:31;;;;;;;24.50;16.75;;;4.10;91.10;;;;;;5048582;28;20029;-61
2024/01/29 10:38:03;;;;;;;26.95;17.27;;;4.10;91.10;;;;;;5043090;28;20025;-61
2024/01/29 10:40:30;;;;;;;25.73;17.25;;;4.20;91.20;;;;;;5043170;28;20504;-62
2024/01/29 10:42:59;;;;;;;26.20;17.58;;;4.30;91.30;;;;;;5046497;28;20041;-63
2024/01/29 10:45:25;;;;;;;27.75;17.48;;;4.50;91.40;;;;;;5043419;28;20043;-58
2024/01/29 10:48:15;;;;;;;25.30;17.00;;;4.60;91.60;;;;;;5045139;28;20067;-60
2024/01/29 10:50:41;;;;;;;25.55;16.73;;;4.70;91.90;;;;;;5040238;28;20048;-62
2024/01/29 10:53:07;;;;;;;26.98;18.30;;;4.90;91.60;;;;;;5038366;28;20623;-62
2024/01/29 10:55:34;;;;;;;25.45;17.98;;;5.00;91.70;;;;;;5048397;28;20040;-61
2024/01/29 10:58:01;;;;;;;27.83;18.48;;;5.10;91.60;;;;;;5041114;28;20032;-62
2024/01/29 11:00:31;;;;;;;24.38;17.60;;;5.20;91.60;;;;;;5043802;28;20086;-60
2024/01/29 11:02:58;;;;;;;24.83;17.17;;;5.30;91.70;;;;;;5046139;28;20524;-62
2024/01/29 11:05:25;;;;;;;25.60;17.15;;;5.50;91.60;;;;;;5045181;28;20049;-61
2024/01/29 11:07:53;;;;;;;25.35;17.17;;;5.60;91.60;;;;;;5052805;28;20045;-61
2024/01/29 11:10:23;;;;;;;23.88;16.52;;;5.70;91.50;;;;;;5043306;28;20128;-62
2024/01/29 11:12:53;;;;;;;23.08;16.17;;;5.80;91.30;;;;;;5042563;28;20386;-61
2024/01/29 11:15:19;;;;;;;25.40;16.55;;;5.90;91.10;;;;;;5040497;28;20079;-61
2024/01/29 11:17:45;;;;;;;23.55;15.73;;;6.00;91.00;;;;;;5043366;28;20531;-60
2024/01/29 11:20:15;;;;;;;22.38;16.05;;;6.10;90.90;;;;;;5049285;28;20049;-61
2024/01/29 11:22:48;;;;;;;22.40;15.90;;;6.20;90.70;;;;;;5038508;28;20033;-61
2024/01/29 11:25:14;;;;;;;22.00;14.65;;;6.30;90.60;;;;;;5042265;28;20405;-63
2024/01/29 11:27:46;;;;;;;25.23;14.68;;;6.40;90.50;;;;;;5043968;28;20083;-61
2024/01/29 11:30:23;;;;;;;20.80;15.23;;;6.50;90.50;;;;;;5041133;28;20064;-63
2024/01/29 11:32:50;;;;;;;21.55;15.20;;;6.60;90.40;;;;;;5042875;28;20607;-61
2024/01/29 11:35:19;;;;;;;24.15;14.75;;;6.70;90.20;;;;;;5040901;28;20381;-62
2024/01/29 11:37:49;;;;;;;21.63;14.57;;;6.70;90.10;;;;;;5040147;28;20215;-63
2024/01/29 11:40:38;;;;;;;19.67;14.45;;;6.80;90.10;;;;;;5042243;28;20033;-64
2024/01/29 11:43:19;;;;;;;21.90;14.82;;;7.00;90.20;;;;;;5042815;28;20040;-62
2024/01/29 11:45:52;;;;;;;19.80;14.05;;;7.10;90.20;;;;;;5045669;28;20029;-63
2024/01/29 11:48:20;;;;;;;17.98;14.10;;;7.10;90.20;;;;;;5044815;28;20037;-62
2024/01/29 11:50:48;;;;;;;19.60;13.85;;;7.20;90.20;;;;;;5039073;28;20601;-63
2024/01/29 11:53:18;;;;;;;18.65;13.57;;;7.30;90.20;;;;;;5039851;28;20115;-63
2024/01/29 11:55:48;;;;;;;16.50;12.32;;;7.40;90.10;;;;;;5045426;28;20033;-63
2024/01/29 11:58:18;;;;;;;15.90;11.65;;;7.50;90.00;;;;;;5043966;28;20029;-63
2024/01/29 12:00:45;;;;;;;16.13;11.10;;;7.60;89.60;;;;;;5042372;28;20417;-63
2024/01/29 12:03:16;;;;;;;13.35;10.13;;;7.70;89.30;;;;;;5049602;28;20032;-62
2024/01/29 12:05:42;;;;;;;15.45;9.93;;;7.80;88.90;;;;;;5043583;28;20041;-64
2024/01/29 12:08:15;;;;;;;11.55;9.35;;;7.90;88.60;;;;;;5048164;28;20105;-62
2024/01/29 12:10:44;;;;;;;12.35;9.50;;;8.00;88.00;;;;;;5041106;28;20120;-63
2024/01/29 12:13:17;;;;;;;13.23;9.52;;;8.00;87.80;;;;;;5046058;28;20033;-63
2024/01/29 12:15:44;;;;;;;13.30;9.60;;;8.20;87.30;;;;;;5045922;28;20041;-63
2024/01/29 12:18:21;;;;;;;13.45;10.55;;;8.20;87.30;;;;;;5045769;28;20036;-64
2024/01/29 12:20:47;;;;;;;13.45;9.48;;;8.40;86.70;;;;;;5050296;28;20123;-64
2024/01/29 12:23:15;;;;;;;9.45;7.90;;;8.40;86.90;;;;;;5046220;28;20036;-63
2024/01/29 12:25:42;;;;;;;10.25;8.27;;;8.50;87.50;;;;;;5042703;28;20053;-63
2024/01/29 12:28:09;;;;;;;10.07;7.63;;;8.60;86.40;;;;;;5048732;28;20044;-64